sensor_id;sensor_type;location;lat;lon;timestamp;temperature;humidity
20487;DHT22;10402;49.012;8.370;2023-05-10T00:02:07;16.00;96.90
20487;DHT22;10402;49.012;8.370;2023-05-10T00:04:33;16.00;96.90
20487;DHT22;10402;49.012;8.370;2023-05-10T00:06:59;16.00;97.00
20487;DHT22;10402;49.012;8.370;2023-05-10T00:09:24;16.00;97.00
20487;DHT22;10402;49.012;8.370;2023-05-10T00:11:50;16.00;97.00
20487;DHT22;10402;49.012;8.370;2023-05-10T00:14:16;16.00;97.00
20487;DHT22;10402;49.012;8.370;2023-05-10T00:16:41;16.00;97.00
20487;DHT22;10402;49.012;8.370;2023-05-10T00:19:07;16.00;97.00
20487;DHT22;10402;49.012;8.370;2023-05-10T00:21:33;16.00;97.10
20487;DHT22;10402;49.012;8.370;2023-05-10T00:23:59;15.90;97.00
20487;DHT22;10402;49.012;8.370;2023-05-10T00:26:25;15.90;97.00
20487;DHT22;10402;49.012;8.370;2023-05-10T00:28:50;15.90;97.00
20487;DHT22;10402;49.012;8.370;2023-05-10T00:31:16;15.90;97.10
20487;DHT22;10402;49.012;8.370;2023-05-10T00:33:41;15.90;97.00
20487;DHT22;10402;49.012;8.370;2023-05-10T00:36:07;15.90;97.10
20487;DHT22;10402;49.012;8.370;2023-05-10T00:38:33;15.90;97.00
20487;DHT22;10402;49.012;8.370;2023-05-10T00:40:59;15.90;97.00
20487;DHT22;10402;49.012;8.370;2023-05-10T00:43:24;15.90;97.00
20487;DHT22;10402;49.012;8.370;2023-05-10T00:45:50;15.90;97.00
20487;DHT22;10402;49.012;8.370;2023-05-10T00:48:15;15.90;97.10
20487;DHT22;10402;49.012;8.370;2023-05-10T00:50:41;15.90;97.00
20487;DHT22;10402;49.012;8.370;2023-05-10T00:53:08;15.80;97.00
20487;DHT22;10402;49.012;8.370;2023-05-10T00:55:34;15.80;97.00
20487;DHT22;10402;49.012;8.370;2023-05-10T00:57:59;15.80;97.00
20487;DHT22;10402;49.012;8.370;2023-05-10T01:00:25;15.80;97.00
20487;DHT22;10402;49.012;8.370;2023-05-10T01:02:53;15.80;97.00
20487;DHT22;10402;49.012;8.370;2023-05-10T01:05:18;15.70;97.10
20487;DHT22;10402;49.012;8.370;2023-05-10T01:07:44;15.80;97.10
20487;DHT22;10402;49.012;8.370;2023-05-10T01:10:10;15.80;97.10
20487;DHT22;10402;49.012;8.370;2023-05-10T01:12:38;15.80;97.10
20487;DHT22;10402;49.012;8.370;2023-05-10T01:15:06;15.70;97.00
20487;DHT22;10402;49.012;8.370;2023-05-10T01:17:34;15.70;97.10
20487;DHT22;10402;49.012;8.370;2023-05-10T01:20:00;15.80;97.10
20487;DHT22;10402;49.012;8.370;2023-05-10T01:23:08;15.70;97.10
20487;DHT22;10402;49.012;8.370;2023-05-10T01:26:07;15.70;97.10
20487;DHT22;10402;49.012;8.370;2023-05-10T01:34:27;15.70;97.20
20487;DHT22;10402;49.012;8.370;2023-05-10T01:37:09;15.70;97.20
20487;DHT22;10402;49.012;8.370;2023-05-10T01:40:37;15.70;97.20
20487;DHT22;10402;49.012;8.370;2023-05-10T01:42:36;15.70;97.20
20487;DHT22;10402;49.012;8.370;2023-05-10T01:45:31;15.60;97.20
20487;DHT22;10402;49.012;8.370;2023-05-10T01:48:05;15.70;97.20
20487;DHT22;10402;49.012;8.370;2023-05-10T01:50:32;15.70;97.20
20487;DHT22;10402;49.012;8.370;2023-05-10T01:53:00;15.70;97.10
20487;DHT22;10402;49.012;8.370;2023-05-10T01:55:30;15.70;97.20
20487;DHT22;10402;49.012;8.370;2023-05-10T01:58:10;15.70;97.10
20487;DHT22;10402;49.012;8.370;2023-05-10T02:00:42;15.70;97.20
20487;DHT22;10402;49.012;8.370;2023-05-10T02:03:09;15.70;97.20
20487;DHT22;10402;49.012;8.370;2023-05-10T02:05:36;15.70;97.20
20487;DHT22;10402;49.012;8.370;2023-05-10T02:08:05;15.70;97.20
20487;DHT22;10402;49.012;8.370;2023-05-10T02:10:34;15.70;97.20
20487;DHT22;10402;49.012;8.370;2023-05-10T02:13:01;15.70;97.20
20487;DHT22;10402;49.012;8.370;2023-05-10T02:15:27;15.70;97.30
20487;DHT22;10402;49.012;8.370;2023-05-10T02:17:55;15.70;97.20
20487;DHT22;10402;49.012;8.370;2023-05-10T02:20:23;15.70;97.20
20487;DHT22;10402;49.012;8.370;2023-05-10T02:22:52;15.70;97.20
20487;DHT22;10402;49.012;8.370;2023-05-10T02:25:20;15.70;97.20
20487;DHT22;10402;49.012;8.370;2023-05-10T02:27:47;15.70;97.10
20487;DHT22;10402;49.012;8.370;2023-05-10T02:30:14;15.80;97.10
20487;DHT22;10402;49.012;8.370;2023-05-10T02:32:41;15.70;96.90
20487;DHT22;10402;49.012;8.370;2023-05-10T02:35:08;15.80;97.00
20487;DHT22;10402;49.012;8.370;2023-05-10T02:37:36;15.70;97.00
20487;DHT22;10402;49.012;8.370;2023-05-10T02:40:04;15.70;97.00
20487;DHT22;10402;49.012;8.370;2023-05-10T02:42:33;15.70;97.30
20487;DHT22;10402;49.012;8.370;2023-05-10T02:45:01;15.60;97.00
20487;DHT22;10402;49.012;8.370;2023-05-10T02:47:28;15.60;97.10
20487;DHT22;10402;49.012;8.370;2023-05-10T02:49:55;15.60;97.10
20487;DHT22;10402;49.012;8.370;2023-05-10T02:52:30;15.60;97.00
20487;DHT22;10402;49.012;8.370;2023-05-10T02:55:02;15.60;97.00
20487;DHT22;10402;49.012;8.370;2023-05-10T02:57:32;15.60;97.00
20487;DHT22;10402;49.012;8.370;2023-05-10T02:59:57;15.60;96.90
20487;DHT22;10402;49.012;8.370;2023-05-10T03:02:23;15.60;97.00
20487;DHT22;10402;49.012;8.370;2023-05-10T03:04:49;15.60;96.90
20487;DHT22;10402;49.012;8.370;2023-05-10T03:07:15;15.60;96.90
20487;DHT22;10402;49.012;8.370;2023-05-10T03:09:41;15.60;96.90
20487;DHT22;10402;49.012;8.370;2023-05-10T03:12:07;15.50;97.00
20487;DHT22;10402;49.012;8.370;2023-05-10T03:17:23;15.50;96.90
20487;DHT22;10402;49.012;8.370;2023-05-10T03:19:55;15.50;97.00
20487;DHT22;10402;49.012;8.370;2023-05-10T03:22:39;15.50;97.00
20487;DHT22;10402;49.012;8.370;2023-05-10T03:25:07;15.50;97.00
20487;DHT22;10402;49.012;8.370;2023-05-10T03:27:35;15.50;97.00
20487;DHT22;10402;49.012;8.370;2023-05-10T03:30:02;15.40;97.30
20487;DHT22;10402;49.012;8.370;2023-05-10T03:32:28;15.40;97.30
20487;DHT22;10402;49.012;8.370;2023-05-10T03:34:55;15.30;97.00
20487;DHT22;10402;49.012;8.370;2023-05-10T03:37:20;15.30;97.10
20487;DHT22;10402;49.012;8.370;2023-05-10T03:39:46;15.30;97.10
20487;DHT22;10402;49.012;8.370;2023-05-10T03:42:11;15.20;97.10
20487;DHT22;10402;49.012;8.370;2023-05-10T03:44:39;15.20;97.20
20487;DHT22;10402;49.012;8.370;2023-05-10T03:47:04;15.20;97.30
20487;DHT22;10402;49.012;8.370;2023-05-10T03:49:30;15.20;97.30
20487;DHT22;10402;49.012;8.370;2023-05-10T03:51:55;15.20;97.30
20487;DHT22;10402;49.012;8.370;2023-05-10T03:54:21;15.20;97.30
20487;DHT22;10402;49.012;8.370;2023-05-10T03:56:46;15.20;97.30
20487;DHT22;10402;49.012;8.370;2023-05-10T03:59:13;15.20;97.40
20487;DHT22;10402;49.012;8.370;2023-05-10T04:01:39;15.20;97.50
20487;DHT22;10402;49.012;8.370;2023-05-10T04:04:04;15.20;97.50
20487;DHT22;10402;49.012;8.370;2023-05-10T04:06:30;15.20;97.50
20487;DHT22;10402;49.012;8.370;2023-05-10T04:08:56;15.20;97.50
20487;DHT22;10402;49.012;8.370;2023-05-10T04:11:21;15.20;97.50
20487;DHT22;10402;49.012;8.370;2023-05-10T04:13:47;15.20;97.50
20487;DHT22;10402;49.012;8.370;2023-05-10T04:16:12;15.20;97.50
20487;DHT22;10402;49.012;8.370;2023-05-10T04:18:38;15.20;97.50
20487;DHT22;10402;49.012;8.370;2023-05-10T04:21:10;15.20;97.50
20487;DHT22;10402;49.012;8.370;2023-05-10T04:23:36;15.20;97.50
20487;DHT22;10402;49.012;8.370;2023-05-10T04:26:02;15.20;97.40
20487;DHT22;10402;49.012;8.370;2023-05-10T04:28:27;15.20;97.40
20487;DHT22;10402;49.012;8.370;2023-05-10T04:30:53;15.30;97.50
20487;DHT22;10402;49.012;8.370;2023-05-10T04:33:18;15.30;97.40
20487;DHT22;10402;49.012;8.370;2023-05-10T04:35:44;15.20;97.30
20487;DHT22;10402;49.012;8.370;2023-05-10T04:38:10;15.20;97.40
20487;DHT22;10402;49.012;8.370;2023-05-10T04:40:35;15.20;97.50
20487;DHT22;10402;49.012;8.370;2023-05-10T04:43:01;15.30;97.50
20487;DHT22;10402;49.012;8.370;2023-05-10T04:45:26;15.30;97.50
20487;DHT22;10402;49.012;8.370;2023-05-10T04:47:52;15.40;97.60
20487;DHT22;10402;49.012;8.370;2023-05-10T04:50:18;15.30;97.50
20487;DHT22;10402;49.012;8.370;2023-05-10T04:52:43;15.40;97.60
20487;DHT22;10402;49.012;8.370;2023-05-10T04:55:09;15.40;97.50
20487;DHT22;10402;49.012;8.370;2023-05-10T04:57:35;15.40;97.50
20487;DHT22;10402;49.012;8.370;2023-05-10T05:00:00;15.40;97.50
20487;DHT22;10402;49.012;8.370;2023-05-10T05:02:26;15.40;97.60
20487;DHT22;10402;49.012;8.370;2023-05-10T05:04:52;15.40;97.50
20487;DHT22;10402;49.012;8.370;2023-05-10T05:07:17;15.40;97.50
20487;DHT22;10402;49.012;8.370;2023-05-10T05:09:43;15.50;97.60
20487;DHT22;10402;49.012;8.370;2023-05-10T05:12:09;15.50;97.50
20487;DHT22;10402;49.012;8.370;2023-05-10T05:14:39;15.50;97.50
20487;DHT22;10402;49.012;8.370;2023-05-10T05:17:05;15.50;97.50
20487;DHT22;10402;49.012;8.370;2023-05-10T05:19:31;15.60;97.50
20487;DHT22;10402;49.012;8.370;2023-05-10T05:21:56;15.70;97.40
20487;DHT22;10402;49.012;8.370;2023-05-10T05:24:22;15.70;97.30
20487;DHT22;10402;49.012;8.370;2023-05-10T05:26:47;15.60;97.20
20487;DHT22;10402;49.012;8.370;2023-05-10T05:29:13;15.70;97.20
20487;DHT22;10402;49.012;8.370;2023-05-10T05:31:38;15.70;97.20
20487;DHT22;10402;49.012;8.370;2023-05-10T05:34:04;15.70;97.10
20487;DHT22;10402;49.012;8.370;2023-05-10T05:36:29;15.70;97.10
20487;DHT22;10402;49.012;8.370;2023-05-10T05:38:56;15.70;97.10
20487;DHT22;10402;49.012;8.370;2023-05-10T05:41:22;15.70;97.10
20487;DHT22;10402;49.012;8.370;2023-05-10T05:43:49;15.70;97.00
20487;DHT22;10402;49.012;8.370;2023-05-10T05:46:15;15.70;97.10
20487;DHT22;10402;49.012;8.370;2023-05-10T05:48:40;15.70;97.10
20487;DHT22;10402;49.012;8.370;2023-05-10T05:51:06;15.70;97.10
20487;DHT22;10402;49.012;8.370;2023-05-10T05:53:32;15.70;97.10
20487;DHT22;10402;49.012;8.370;2023-05-10T05:55:58;15.70;97.10
20487;DHT22;10402;49.012;8.370;2023-05-10T05:58:25;15.70;97.00
20487;DHT22;10402;49.012;8.370;2023-05-10T06:00:51;15.80;97.10
20487;DHT22;10402;49.012;8.370;2023-05-10T06:03:17;15.80;97.00
20487;DHT22;10402;49.012;8.370;2023-05-10T06:05:43;15.80;96.90
20487;DHT22;10402;49.012;8.370;2023-05-10T06:08:08;15.80;96.80
20487;DHT22;10402;49.012;8.370;2023-05-10T06:10:34;15.80;96.70
20487;DHT22;10402;49.012;8.370;2023-05-10T06:12:59;15.80;96.70
20487;DHT22;10402;49.012;8.370;2023-05-10T06:15:25;15.80;96.60
20487;DHT22;10402;49.012;8.370;2023-05-10T06:17:51;15.80;96.60
20487;DHT22;10402;49.012;8.370;2023-05-10T06:20:17;15.90;96.60
20487;DHT22;10402;49.012;8.370;2023-05-10T06:22:42;15.80;96.50
20487;DHT22;10402;49.012;8.370;2023-05-10T06:25:08;15.80;96.50
20487;DHT22;10402;49.012;8.370;2023-05-10T06:27:35;15.80;96.50
20487;DHT22;10402;49.012;8.370;2023-05-10T06:30:00;15.80;96.50
20487;DHT22;10402;49.012;8.370;2023-05-10T06:32:26;15.90;96.50
20487;DHT22;10402;49.012;8.370;2023-05-10T06:34:51;15.90;96.50
20487;DHT22;10402;49.012;8.370;2023-05-10T06:37:17;15.90;96.50
20487;DHT22;10402;49.012;8.370;2023-05-10T06:39:43;15.90;96.40
20487;DHT22;10402;49.012;8.370;2023-05-10T06:42:08;15.90;96.40
20487;DHT22;10402;49.012;8.370;2023-05-10T06:44:34;16.00;96.50
20487;DHT22;10402;49.012;8.370;2023-05-10T06:47:00;15.90;96.40
20487;DHT22;10402;49.012;8.370;2023-05-10T06:49:26;16.00;96.40
20487;DHT22;10402;49.012;8.370;2023-05-10T06:51:52;16.00;96.20
20487;DHT22;10402;49.012;8.370;2023-05-10T06:54:17;16.10;96.20
20487;DHT22;10402;49.012;8.370;2023-05-10T06:56:43;16.10;96.20
20487;DHT22;10402;49.012;8.370;2023-05-10T06:59:08;16.00;96.00
20487;DHT22;10402;49.012;8.370;2023-05-10T07:01:34;16.10;96.00
20487;DHT22;10402;49.012;8.370;2023-05-10T07:03:59;16.10;95.90
20487;DHT22;10402;49.012;8.370;2023-05-10T07:06:25;16.20;95.80
20487;DHT22;10402;49.012;8.370;2023-05-10T07:08:50;16.20;95.80
20487;DHT22;10402;49.012;8.370;2023-05-10T07:11:16;16.20;95.60
20487;DHT22;10402;49.012;8.370;2023-05-10T07:13:42;16.20;95.60
20487;DHT22;10402;49.012;8.370;2023-05-10T07:16:09;16.30;95.60
20487;DHT22;10402;49.012;8.370;2023-05-10T07:18:35;16.30;95.60
20487;DHT22;10402;49.012;8.370;2023-05-10T07:21:01;16.30;95.90
20487;DHT22;10402;49.012;8.370;2023-05-10T07:23:27;16.30;95.60
20487;DHT22;10402;49.012;8.370;2023-05-10T07:25:53;16.30;95.50
20487;DHT22;10402;49.012;8.370;2023-05-10T07:28:19;16.30;95.50
20487;DHT22;10402;49.012;8.370;2023-05-10T07:30:44;16.30;95.50
20487;DHT22;10402;49.012;8.370;2023-05-10T07:33:12;16.30;95.50
20487;DHT22;10402;49.012;8.370;2023-05-10T07:35:37;16.30;95.40
20487;DHT22;10402;49.012;8.370;2023-05-10T07:38:03;16.30;95.30
20487;DHT22;10402;49.012;8.370;2023-05-10T07:40:29;16.30;95.20
20487;DHT22;10402;49.012;8.370;2023-05-10T07:42:55;16.30;95.20
20487;DHT22;10402;49.012;8.370;2023-05-10T07:45:21;16.20;95.10
20487;DHT22;10402;49.012;8.370;2023-05-10T07:47:46;16.20;95.10
20487;DHT22;10402;49.012;8.370;2023-05-10T07:50:12;16.20;95.10
20487;DHT22;10402;49.012;8.370;2023-05-10T07:52:37;16.30;95.10
20487;DHT22;10402;49.012;8.370;2023-05-10T07:55:03;16.30;95.00
20487;DHT22;10402;49.012;8.370;2023-05-10T07:57:29;16.30;95.00
20487;DHT22;10402;49.012;8.370;2023-05-10T07:59:54;16.30;94.90
20487;DHT22;10402;49.012;8.370;2023-05-10T08:02:20;16.40;94.90
20487;DHT22;10402;49.012;8.370;2023-05-10T08:04:45;16.40;94.80
20487;DHT22;10402;49.012;8.370;2023-05-10T08:07:11;16.40;94.80
20487;DHT22;10402;49.012;8.370;2023-05-10T08:09:36;16.50;94.70
20487;DHT22;10402;49.012;8.370;2023-05-10T08:12:02;16.50;94.70
20487;DHT22;10402;49.012;8.370;2023-05-10T08:14:28;16.60;94.60
20487;DHT22;10402;49.012;8.370;2023-05-10T08:16:54;16.60;94.40
20487;DHT22;10402;49.012;8.370;2023-05-10T08:19:19;16.70;94.40
20487;DHT22;10402;49.012;8.370;2023-05-10T08:21:46;16.80;94.30
20487;DHT22;10402;49.012;8.370;2023-05-10T08:24:12;16.90;94.20
20487;DHT22;10402;49.012;8.370;2023-05-10T08:26:37;16.90;94.00
20487;DHT22;10402;49.012;8.370;2023-05-10T08:29:03;17.00;94.00
20487;DHT22;10402;49.012;8.370;2023-05-10T08:31:28;17.00;93.90
20487;DHT22;10402;49.012;8.370;2023-05-10T08:33:54;16.90;93.80
20487;DHT22;10402;49.012;8.370;2023-05-10T08:36:20;16.90;93.90
20487;DHT22;10402;49.012;8.370;2023-05-10T08:38:50;16.90;93.80
20487;DHT22;10402;49.012;8.370;2023-05-10T08:41:19;17.00;93.90
20487;DHT22;10402;49.012;8.370;2023-05-10T08:43:46;17.00;93.80
20487;DHT22;10402;49.012;8.370;2023-05-10T08:46:16;17.00;93.70
20487;DHT22;10402;49.012;8.370;2023-05-10T08:48:44;16.90;93.40
20487;DHT22;10402;49.012;8.370;2023-05-10T08:51:15;16.90;93.60
20487;DHT22;10402;49.012;8.370;2023-05-10T08:53:44;16.80;93.50
20487;DHT22;10402;49.012;8.370;2023-05-10T08:56:09;16.80;93.40
20487;DHT22;10402;49.012;8.370;2023-05-10T08:58:36;16.70;93.30
20487;DHT22;10402;49.012;8.370;2023-05-10T09:01:03;16.80;93.70
20487;DHT22;10402;49.012;8.370;2023-05-10T09:03:29;16.90;93.20
20487;DHT22;10402;49.012;8.370;2023-05-10T09:05:55;17.00;93.20
20487;DHT22;10402;49.012;8.370;2023-05-10T09:08:21;17.10;93.10
20487;DHT22;10402;49.012;8.370;2023-05-10T09:10:50;17.10;93.00
20487;DHT22;10402;49.012;8.370;2023-05-10T09:13:17;17.10;92.80
20487;DHT22;10402;49.012;8.370;2023-05-10T09:15:44;17.10;93.10
20487;DHT22;10402;49.012;8.370;2023-05-10T09:18:10;17.10;92.80
20487;DHT22;10402;49.012;8.370;2023-05-10T09:20:35;17.10;92.80
20487;DHT22;10402;49.012;8.370;2023-05-10T09:23:01;17.10;92.80
20487;DHT22;10402;49.012;8.370;2023-05-10T09:25:26;17.10;92.70
20487;DHT22;10402;49.012;8.370;2023-05-10T09:27:52;17.10;92.60
20487;DHT22;10402;49.012;8.370;2023-05-10T09:30:25;17.00;92.60
20487;DHT22;10402;49.012;8.370;2023-05-10T09:32:52;17.00;92.50
20487;DHT22;10402;49.012;8.370;2023-05-10T09:35:19;17.10;92.50
20487;DHT22;10402;49.012;8.370;2023-05-10T09:37:47;17.20;92.40
20487;DHT22;10402;49.012;8.370;2023-05-10T09:40:23;17.20;92.10
20487;DHT22;10402;49.012;8.370;2023-05-10T09:43:06;17.30;91.90
20487;DHT22;10402;49.012;8.370;2023-05-10T09:45:34;17.30;91.70
20487;DHT22;10402;49.012;8.370;2023-05-10T09:48:01;17.30;91.50
20487;DHT22;10402;49.012;8.370;2023-05-10T09:50:28;17.30;91.40
20487;DHT22;10402;49.012;8.370;2023-05-10T09:52:59;17.30;91.20
20487;DHT22;10402;49.012;8.370;2023-05-10T09:55:47;17.40;91.20
20487;DHT22;10402;49.012;8.370;2023-05-10T09:58:15;17.40;91.20
20487;DHT22;10402;49.012;8.370;2023-05-10T10:00:45;17.40;91.00
20487;DHT22;10402;49.012;8.370;2023-05-10T10:03:19;17.50;90.90
20487;DHT22;10402;49.012;8.370;2023-05-10T10:05:46;17.60;90.90
20487;DHT22;10402;49.012;8.370;2023-05-10T10:08:13;17.70;90.70
20487;DHT22;10402;49.012;8.370;2023-05-10T10:10:39;17.80;90.50
20487;DHT22;10402;49.012;8.370;2023-05-10T10:13:06;17.80;90.30
20487;DHT22;10402;49.012;8.370;2023-05-10T10:15:33;17.90;90.20
20487;DHT22;10402;49.012;8.370;2023-05-10T10:17:59;17.90;90.10
20487;DHT22;10402;49.012;8.370;2023-05-10T10:20:26;18.00;90.00
20487;DHT22;10402;49.012;8.370;2023-05-10T10:22:52;17.90;90.10
20487;DHT22;10402;49.012;8.370;2023-05-10T10:25:18;17.90;89.50
20487;DHT22;10402;49.012;8.370;2023-05-10T10:28:13;17.90;89.10
20487;DHT22;10402;49.012;8.370;2023-05-10T10:30:43;17.90;89.10
20487;DHT22;10402;49.012;8.370;2023-05-10T10:33:36;17.90;88.90
20487;DHT22;10402;49.012;8.370;2023-05-10T10:36:05;17.90;88.80
20487;DHT22;10402;49.012;8.370;2023-05-10T10:41:27;18.10;88.60
20487;DHT22;10402;49.012;8.370;2023-05-10T10:47:07;18.20;87.50
20487;DHT22;10402;49.012;8.370;2023-05-10T10:52:25;18.20;86.70
20487;DHT22;10402;49.012;8.370;2023-05-10T10:55:01;18.10;86.60
20487;DHT22;10402;49.012;8.370;2023-05-10T10:57:28;18.10;86.30
20487;DHT22;10402;49.012;8.370;2023-05-10T11:00:28;18.10;86.00
20487;DHT22;10402;49.012;8.370;2023-05-10T11:08:14;18.10;85.80
20487;DHT22;10402;49.012;8.370;2023-05-10T11:10:53;18.10;85.30
20487;DHT22;10402;49.012;8.370;2023-05-10T11:13:33;18.10;85.10
20487;DHT22;10402;49.012;8.370;2023-05-10T11:16:19;18.10;84.70
20487;DHT22;10402;49.012;8.370;2023-05-10T11:19:04;18.20;84.60
20487;DHT22;10402;49.012;8.370;2023-05-10T11:21:30;18.20;84.30
20487;DHT22;10402;49.012;8.370;2023-05-10T11:23:58;18.30;83.90
20487;DHT22;10402;49.012;8.370;2023-05-10T11:26:36;18.30;83.40
20487;DHT22;10402;49.012;8.370;2023-05-10T11:29:02;18.30;83.10
20487;DHT22;10402;49.012;8.370;2023-05-10T11:31:30;18.30;82.70
20487;DHT22;10402;49.012;8.370;2023-05-10T11:33:58;18.30;82.50
20487;DHT22;10402;49.012;8.370;2023-05-10T11:36:26;18.30;82.30
20487;DHT22;10402;49.012;8.370;2023-05-10T11:38:53;18.30;82.10
20487;DHT22;10402;49.012;8.370;2023-05-10T11:41:19;18.30;82.00
20487;DHT22;10402;49.012;8.370;2023-05-10T11:43:52;18.30;81.60
20487;DHT22;10402;49.012;8.370;2023-05-10T11:46:20;18.30;81.00
20487;DHT22;10402;49.012;8.370;2023-05-10T11:48:51;18.20;80.70
20487;DHT22;10402;49.012;8.370;2023-05-10T11:51:21;18.20;80.40
20487;DHT22;10402;49.012;8.370;2023-05-10T11:53:46;18.20;80.10
20487;DHT22;10402;49.012;8.370;2023-05-10T11:56:12;18.30;80.00
20487;DHT22;10402;49.012;8.370;2023-05-10T11:58:39;18.20;79.70
20487;DHT22;10402;49.012;8.370;2023-05-10T12:01:06;18.30;79.40
20487;DHT22;10402;49.012;8.370;2023-05-10T12:03:32;18.20;78.70
20487;DHT22;10402;49.012;8.370;2023-05-10T12:05:59;18.20;78.50
20487;DHT22;10402;49.012;8.370;2023-05-10T12:08:27;18.20;78.50
20487;DHT22;10402;49.012;8.370;2023-05-10T12:11:03;18.30;78.20
20487;DHT22;10402;49.012;8.370;2023-05-10T12:13:28;18.30;77.60
20487;DHT22;10402;49.012;8.370;2023-05-10T12:15:57;18.30;76.70
20487;DHT22;10402;49.012;8.370;2023-05-10T12:18:23;18.30;76.70
20487;DHT22;10402;49.012;8.370;2023-05-10T12:20:52;18.30;76.40
20487;DHT22;10402;49.012;8.370;2023-05-10T12:23:20;18.30;76.00
20487;DHT22;10402;49.012;8.370;2023-05-10T12:25:46;18.30;75.40
20487;DHT22;10402;49.012;8.370;2023-05-10T12:28:12;18.30;75.20
20487;DHT22;10402;49.012;8.370;2023-05-10T12:30:38;18.40;75.10
20487;DHT22;10402;49.012;8.370;2023-05-10T12:33:09;18.40;74.80
20487;DHT22;10402;49.012;8.370;2023-05-10T12:35:53;18.40;74.00
20487;DHT22;10402;49.012;8.370;2023-05-10T12:40:50;18.40;73.50
20487;DHT22;10402;49.012;8.370;2023-05-10T12:43:15;18.50;73.60
20487;DHT22;10402;49.012;8.370;2023-05-10T12:45:41;18.50;73.30
20487;DHT22;10402;49.012;8.370;2023-05-10T12:48:06;18.60;73.30
20487;DHT22;10402;49.012;8.370;2023-05-10T12:50:32;18.70;73.20
20487;DHT22;10402;49.012;8.370;2023-05-10T12:52:57;18.80;73.10
20487;DHT22;10402;49.012;8.370;2023-05-10T12:55:23;18.90;72.70
20487;DHT22;10402;49.012;8.370;2023-05-10T12:57:48;18.90;72.10
20487;DHT22;10402;49.012;8.370;2023-05-10T13:00:14;18.90;71.80
20487;DHT22;10402;49.012;8.370;2023-05-10T13:02:40;19.00;71.50
20487;DHT22;10402;49.012;8.370;2023-05-10T13:05:06;19.00;71.50
20487;DHT22;10402;49.012;8.370;2023-05-10T13:07:31;19.00;71.10
20487;DHT22;10402;49.012;8.370;2023-05-10T13:09:57;19.00;70.90
20487;DHT22;10402;49.012;8.370;2023-05-10T13:12:22;19.00;70.60
20487;DHT22;10402;49.012;8.370;2023-05-10T13:14:48;19.00;70.30
20487;DHT22;10402;49.012;8.370;2023-05-10T13:17:14;19.00;70.20
20487;DHT22;10402;49.012;8.370;2023-05-10T13:19:39;19.10;70.10
20487;DHT22;10402;49.012;8.370;2023-05-10T13:22:05;19.10;69.90
20487;DHT22;10402;49.012;8.370;2023-05-10T13:24:30;19.20;69.70
20487;DHT22;10402;49.012;8.370;2023-05-10T13:26:56;19.20;69.50
20487;DHT22;10402;49.012;8.370;2023-05-10T13:29:21;19.20;69.30
20487;DHT22;10402;49.012;8.370;2023-05-10T13:31:48;19.20;69.20
20487;DHT22;10402;49.012;8.370;2023-05-10T13:34:13;19.30;69.20
20487;DHT22;10402;49.012;8.370;2023-05-10T13:36:39;19.30;68.90
20487;DHT22;10402;49.012;8.370;2023-05-10T13:39:04;19.30;68.70
20487;DHT22;10402;49.012;8.370;2023-05-10T13:41:30;19.30;68.50
20487;DHT22;10402;49.012;8.370;2023-05-10T13:43:56;19.20;68.30
20487;DHT22;10402;49.012;8.370;2023-05-10T13:46:21;19.20;68.30
20487;DHT22;10402;49.012;8.370;2023-05-10T13:51:21;19.30;68.20
20487;DHT22;10402;49.012;8.370;2023-05-10T13:53:46;19.20;67.90
20487;DHT22;10402;49.012;8.370;2023-05-10T13:56:13;19.20;67.80
20487;DHT22;10402;49.012;8.370;2023-05-10T13:58:38;19.20;67.60
20487;DHT22;10402;49.012;8.370;2023-05-10T14:01:04;19.10;67.40
20487;DHT22;10402;49.012;8.370;2023-05-10T14:03:30;19.10;67.20
20487;DHT22;10402;49.012;8.370;2023-05-10T14:05:56;19.00;67.10
20487;DHT22;10402;49.012;8.370;2023-05-10T14:08:21;19.00;67.20
20487;DHT22;10402;49.012;8.370;2023-05-10T14:10:47;19.00;67.00
20487;DHT22;10402;49.012;8.370;2023-05-10T14:13:14;19.00;66.90
20487;DHT22;10402;49.012;8.370;2023-05-10T14:15:40;19.00;67.00
20487;DHT22;10402;49.012;8.370;2023-05-10T14:18:06;19.00;67.00
20487;DHT22;10402;49.012;8.370;2023-05-10T14:20:32;19.10;67.00
20487;DHT22;10402;49.012;8.370;2023-05-10T14:22:59;19.10;66.90
20487;DHT22;10402;49.012;8.370;2023-05-10T14:25:25;19.10;66.90
20487;DHT22;10402;49.012;8.370;2023-05-10T14:27:50;19.20;66.80
20487;DHT22;10402;49.012;8.370;2023-05-10T14:30:16;19.30;66.60
20487;DHT22;10402;49.012;8.370;2023-05-10T14:32:42;19.30;66.40
20487;DHT22;10402;49.012;8.370;2023-05-10T14:35:07;19.40;66.30
20487;DHT22;10402;49.012;8.370;2023-05-10T14:37:34;19.50;66.10
20487;DHT22;10402;49.012;8.370;2023-05-10T14:39:59;19.60;66.00
20487;DHT22;10402;49.012;8.370;2023-05-10T14:42:25;19.60;65.60
20487;DHT22;10402;49.012;8.370;2023-05-10T14:44:51;19.50;65.30
20487;DHT22;10402;49.012;8.370;2023-05-10T14:47:16;19.60;65.50
20487;DHT22;10402;49.012;8.370;2023-05-10T14:49:42;19.60;65.40
20487;DHT22;10402;49.012;8.370;2023-05-10T14:52:07;19.50;65.40
20487;DHT22;10402;49.012;8.370;2023-05-10T14:54:33;19.60;65.30
20487;DHT22;10402;49.012;8.370;2023-05-10T14:56:59;19.60;65.20
20487;DHT22;10402;49.012;8.370;2023-05-10T14:59:25;19.60;65.10
20487;DHT22;10402;49.012;8.370;2023-05-10T15:01:51;19.70;65.10
20487;DHT22;10402;49.012;8.370;2023-05-10T15:04:16;19.70;65.00
20487;DHT22;10402;49.012;8.370;2023-05-10T15:06:42;19.70;65.00
20487;DHT22;10402;49.012;8.370;2023-05-10T15:09:07;19.70;65.60
20487;DHT22;10402;49.012;8.370;2023-05-10T15:11:34;19.70;64.80
20487;DHT22;10402;49.012;8.370;2023-05-10T15:14:00;19.60;64.90
20487;DHT22;10402;49.012;8.370;2023-05-10T15:16:27;19.50;64.90
20487;DHT22;10402;49.012;8.370;2023-05-10T15:18:52;19.50;65.00
20487;DHT22;10402;49.012;8.370;2023-05-10T15:21:18;19.50;65.20
20487;DHT22;10402;49.012;8.370;2023-05-10T15:23:43;19.40;65.10
20487;DHT22;10402;49.012;8.370;2023-05-10T15:26:09;19.40;65.20
20487;DHT22;10402;49.012;8.370;2023-05-10T15:28:34;19.40;65.10
20487;DHT22;10402;49.012;8.370;2023-05-10T15:31:00;19.40;65.10
20487;DHT22;10402;49.012;8.370;2023-05-10T15:33:26;19.50;65.00
20487;DHT22;10402;49.012;8.370;2023-05-10T15:35:52;19.50;64.80
20487;DHT22;10402;49.012;8.370;2023-05-10T15:38:19;19.50;64.80
20487;DHT22;10402;49.012;8.370;2023-05-10T15:40:44;19.50;65.40
20487;DHT22;10402;49.012;8.370;2023-05-10T15:43:10;19.50;64.60
20487;DHT22;10402;49.012;8.370;2023-05-10T15:45:35;19.40;64.40
20487;DHT22;10402;49.012;8.370;2023-05-10T15:48:01;19.40;64.50
20487;DHT22;10402;49.012;8.370;2023-05-10T15:50:26;19.40;64.20
20487;DHT22;10402;49.012;8.370;2023-05-10T15:52:52;19.40;64.10
20487;DHT22;10402;49.012;8.370;2023-05-10T15:55:18;19.30;63.90
20487;DHT22;10402;49.012;8.370;2023-05-10T15:57:44;19.40;64.00
20487;DHT22;10402;49.012;8.370;2023-05-10T16:00:11;19.40;64.00